Авиационная погода в Mărculeşti International Airport

Регион: 
Погода METAR: 
LUBM 191100Z 13008KT 120V180 CAVOK M03/M12 Q1031 R25/CLRD65
Время наблюдения
2021-02-19T11:00:00Z
Температура C
-3.0
Точка росы
-12.0
Направление ветра
130
Скорость ветра (узлы)
8
Метео видимость
6.21
Явления погоды
Условия полета
VFR